SAB404 LATI-LGSA
Flight info
| Callsign | SAB404 |
|---|---|
| Flight time | 1h 5m |
| Altitude | 35000 |
| Route | ELBAK DCT DIMIS UL604 TRL UJ65 SOKRI |
| Aircraft | B737/M-SDE2E3FGHIRWXY/LB1 |
Departure
| Time | 2026-05-08 17:37 |
|---|---|
| Airport | Tirana International Airport Mother Teresa (LATI) |
Arrival
| Time | 2026-05-08 18:42 |
|---|---|
| Airport | Chania International Airport (LGSA) |
| Time | Latitude | Longitude | Altitude | Speed | Heading |
|---|---|---|---|---|---|
| 2026-05-08 17:26 | 41.42417 | 19.71463 | 119 ft | 0 kts | 264° |
| 2026-05-08 17:26 | 41.42417 | 19.71462 | 119 ft | 0 kts | 264° |
| 2026-05-08 17:29 | 41.42417 | 19.71461 | 119 ft | 0 kts | 264° |
| 2026-05-08 17:31 | 41.42417 | 19.71460 | 119 ft | 0 kts | 264° |
| 2026-05-08 17:32 | 41.42418 | 19.71464 | 119 ft | 2 kts | 264° |
| 2026-05-08 17:32 | 41.42419 | 19.71484 | 119 ft | 3 kts | 265° |
| 2026-05-08 17:33 | 41.42415 | 19.71508 | 119 ft | 3 kts | 305° |
| 2026-05-08 17:33 | 41.42399 | 19.71524 | 119 ft | 3 kts | 344° |
| 2026-05-08 17:33 | 41.42392 | 19.71526 | 119 ft | 0 kts | 355° |
| 2026-05-08 17:34 | 41.42419 | 19.71520 | 119 ft | 10 kts | 349° |
| 2026-05-08 17:34 | 41.42503 | 19.71504 | 119 ft | 14 kts | 355° |
| 2026-05-08 17:34 | 41.42596 | 19.71493 | 119 ft | 11 kts | 356° |
| 2026-05-08 17:34 | 41.42667 | 19.71538 | 119 ft | 12 kts | 61° |
| 2026-05-08 17:35 | 41.42679 | 19.71659 | 119 ft | 15 kts | 84° |
| 2026-05-08 17:35 | 41.42689 | 19.71809 | 119 ft | 18 kts | 84° |
| 2026-05-08 17:35 | 41.42673 | 19.71914 | 119 ft | 6 kts | 173° |
| 2026-05-08 17:35 | 41.42616 | 19.71906 | 119 ft | 7 kts | 174° |
| 2026-05-08 17:36 | 41.42614 | 19.71907 | 119 ft | 0 kts | 174° |
| 2026-05-08 17:36 | 41.42613 | 19.71907 | 119 ft | 0 kts | 174° |
| 2026-05-08 17:36 | 41.42296 | 19.71948 | 119 ft | 100 kts | 175° |
| 2026-05-08 17:36 | 41.41289 | 19.72088 | 167 ft | 183 kts | 173° |
| 2026-05-08 17:37 | 41.39982 | 19.72254 | 1490 ft | 186 kts | 174° |
| 2026-05-08 17:37 | 41.38650 | 19.72431 | 2822 ft | 202 kts | 174° |
| 2026-05-08 17:37 | 41.37183 | 19.72627 | 3802 ft | 227 kts | 174° |
| 2026-05-08 17:37 | 41.35526 | 19.72847 | 4790 ft | 250 kts | 174° |
| 2026-05-08 17:38 | 41.33747 | 19.73082 | 5945 ft | 263 kts | 174° |
| 2026-05-08 17:38 | 41.31900 | 19.73326 | 7204 ft | 270 kts | 174° |
| 2026-05-08 17:38 | 41.30007 | 19.73577 | 8408 ft | 277 kts | 174° |
| 2026-05-08 17:38 | 41.28069 | 19.73834 | 9568 ft | 282 kts | 174° |
| 2026-05-08 17:39 | 41.26110 | 19.74219 | 10599 ft | 294 kts | 166° |
| 2026-05-08 17:39 | 41.24240 | 19.75533 | 11334 ft | 316 kts | 147° |
| 2026-05-08 17:39 | 41.22511 | 19.77461 | 12142 ft | 334 kts | 145° |
| 2026-05-08 17:39 | 41.20604 | 19.79345 | 12983 ft | 347 kts | 150° |
| 2026-05-08 17:40 | 41.18561 | 19.81131 | 14049 ft | 354 kts | 151° |
| 2026-05-08 17:40 | 41.16466 | 19.82901 | 15200 ft | 360 kts | 151° |
| 2026-05-08 17:40 | 41.14354 | 19.84683 | 16296 ft | 367 kts | 151° |
| 2026-05-08 17:40 | 41.12166 | 19.86525 | 17357 ft | 375 kts | 150° |
| 2026-05-08 17:41 | 41.09942 | 19.88399 | 18381 ft | 382 kts | 150° |
| 2026-05-08 17:41 | 41.07680 | 19.90302 | 19358 ft | 388 kts | 150° |
| 2026-05-08 17:41 | 41.05366 | 19.92244 | 20299 ft | 395 kts | 150° |
| 2026-05-08 17:41 | 41.03050 | 19.94190 | 20993 ft | 403 kts | 150° |
| 2026-05-08 17:42 | 41.00669 | 19.96189 | 21881 ft | 407 kts | 150° |
| 2026-05-08 17:42 | 40.98260 | 19.98208 | 22725 ft | 413 kts | 150° |
| 2026-05-08 17:42 | 40.95816 | 20.00256 | 23486 ft | 419 kts | 149° |
| 2026-05-08 17:42 | 40.93336 | 20.02330 | 24259 ft | 424 kts | 149° |
| 2026-05-08 17:43 | 40.90834 | 20.04421 | 24978 ft | 428 kts | 150° |
| 2026-05-08 17:43 | 40.88298 | 20.06540 | 25648 ft | 433 kts | 150° |
| 2026-05-08 17:43 | 40.85731 | 20.08651 | 26279 ft | 437 kts | 152° |
| 2026-05-08 17:43 | 40.82999 | 20.10438 | 26871 ft | 440 kts | 158° |
| 2026-05-08 17:44 | 40.81120 | 20.11609 | 27291 ft | 442 kts | 157° |
| 2026-05-08 17:44 | 40.78348 | 20.13403 | 27857 ft | 447 kts | 156° |
| 2026-05-08 17:44 | 40.75553 | 20.15238 | 28376 ft | 451 kts | 157° |
| 2026-05-08 17:44 | 40.72766 | 20.17064 | 28885 ft | 455 kts | 157° |
| 2026-05-08 17:45 | 40.69924 | 20.18924 | 29355 ft | 459 kts | 157° |
| 2026-05-08 17:45 | 40.67051 | 20.20800 | 29824 ft | 462 kts | 157° |
| 2026-05-08 17:45 | 40.64157 | 20.22690 | 30264 ft | 466 kts | 157° |
| 2026-05-08 17:45 | 40.61242 | 20.24591 | 30675 ft | 469 kts | 157° |
| 2026-05-08 17:46 | 40.58309 | 20.26502 | 31088 ft | 472 kts | 158° |
| 2026-05-08 17:46 | 40.55357 | 20.28424 | 31552 ft | 473 kts | 158° |
| 2026-05-08 17:46 | 40.52405 | 20.30342 | 32069 ft | 473 kts | 158° |
| 2026-05-08 17:46 | 40.49455 | 20.32259 | 32579 ft | 473 kts | 158° |
| 2026-05-08 17:47 | 40.46508 | 20.34172 | 33091 ft | 472 kts | 158° |
| 2026-05-08 17:47 | 40.43559 | 20.36084 | 33579 ft | 472 kts | 158° |
| 2026-05-08 17:47 | 40.40619 | 20.37989 | 34069 ft | 472 kts | 158° |
| 2026-05-08 17:47 | 40.37677 | 20.39892 | 34542 ft | 471 kts | 158° |
| 2026-05-08 17:48 | 40.34734 | 20.41794 | 34992 ft | 471 kts | 158° |
| 2026-05-08 17:48 | 40.31794 | 20.43694 | 35030 ft | 470 kts | 158° |
| 2026-05-08 17:48 | 40.25938 | 20.47470 | 35030 ft | 469 kts | 158° |
| 2026-05-08 17:49 | 40.20077 | 20.51242 | 35030 ft | 469 kts | 158° |
| 2026-05-08 17:49 | 40.14209 | 20.55012 | 35032 ft | 469 kts | 158° |
| 2026-05-08 17:50 | 40.08348 | 20.58769 | 35034 ft | 469 kts | 158° |
| 2026-05-08 17:50 | 40.02454 | 20.62410 | 35037 ft | 468 kts | 159° |
| 2026-05-08 17:51 | 39.96546 | 20.66011 | 35042 ft | 473 kts | 160° |
| 2026-05-08 17:51 | 39.90588 | 20.69642 | 35045 ft | 472 kts | 160° |
| 2026-05-08 17:52 | 39.84630 | 20.73266 | 35048 ft | 472 kts | 160° |
| 2026-05-08 17:53 | 39.75746 | 20.78655 | 35050 ft | 471 kts | 160° |
| 2026-05-08 17:53 | 39.69796 | 20.82259 | 35052 ft | 472 kts | 160° |
| 2026-05-08 17:54 | 39.63977 | 20.86257 | 35052 ft | 474 kts | 157° |
| 2026-05-08 17:54 | 39.58138 | 20.90255 | 35050 ft | 474 kts | 158° |
| 2026-05-08 17:55 | 39.52300 | 20.94241 | 35051 ft | 474 kts | 158° |
| 2026-05-08 17:55 | 39.46466 | 20.98216 | 35051 ft | 474 kts | 158° |
| 2026-05-08 17:56 | 39.40619 | 21.02191 | 35049 ft | 475 kts | 158° |
| 2026-05-08 17:56 | 39.34776 | 21.06157 | 35047 ft | 474 kts | 158° |
| 2026-05-08 17:57 | 39.28935 | 21.10114 | 35046 ft | 474 kts | 158° |
| 2026-05-08 17:57 | 39.23083 | 21.14071 | 35045 ft | 475 kts | 158° |
| 2026-05-08 17:58 | 39.17226 | 21.18024 | 35042 ft | 475 kts | 158° |
| 2026-05-08 17:58 | 39.11365 | 21.21972 | 35039 ft | 476 kts | 159° |
| 2026-05-08 17:59 | 39.05494 | 21.25920 | 35037 ft | 476 kts | 159° |
| 2026-05-08 17:59 | 38.99626 | 21.29858 | 35033 ft | 476 kts | 159° |
| 2026-05-08 18:00 | 38.93745 | 21.33797 | 35033 ft | 477 kts | 159° |
| 2026-05-08 18:00 | 38.84903 | 21.39704 | 35026 ft | 478 kts | 159° |
| 2026-05-08 18:01 | 38.79008 | 21.43636 | 35033 ft | 478 kts | 159° |
| 2026-05-08 18:01 | 38.73103 | 21.47565 | 35032 ft | 478 kts | 159° |
| 2026-05-08 18:02 | 38.68189 | 21.50830 | 35030 ft | 479 kts | 159° |
| 2026-05-08 18:02 | 38.61265 | 21.55421 | 35029 ft | 480 kts | 159° |
| 2026-05-08 18:03 | 38.55332 | 21.59349 | 35025 ft | 480 kts | 160° |
| 2026-05-08 18:03 | 38.49388 | 21.63276 | 35024 ft | 482 kts | 160° |
| 2026-05-08 18:04 | 38.43426 | 21.67208 | 35025 ft | 482 kts | 160° |
| 2026-05-08 18:04 | 38.37459 | 21.71136 | 35025 ft | 483 kts | 160° |
| 2026-05-08 18:05 | 38.31492 | 21.75056 | 35025 ft | 483 kts | 160° |
| 2026-05-08 18:05 | 38.25508 | 21.78980 | 35057 ft | 484 kts | 160° |
| 2026-05-08 18:06 | 38.19515 | 21.82902 | 35056 ft | 484 kts | 160° |
| 2026-05-08 18:06 | 38.13520 | 21.86819 | 35057 ft | 484 kts | 160° |
| 2026-05-08 18:07 | 38.07580 | 21.90692 | 35057 ft | 485 kts | 160° |
| 2026-05-08 18:07 | 38.01557 | 21.94613 | 35059 ft | 485 kts | 160° |
| 2026-05-08 18:08 | 37.95558 | 21.98511 | 35060 ft | 485 kts | 160° |
| 2026-05-08 18:08 | 37.89555 | 22.02403 | 35068 ft | 485 kts | 160° |
| 2026-05-08 18:09 | 37.83552 | 22.06289 | 35081 ft | 485 kts | 160° |
| 2026-05-08 18:09 | 37.77549 | 22.10167 | 35087 ft | 484 kts | 160° |
| 2026-05-08 18:10 | 37.71560 | 22.14030 | 35092 ft | 483 kts | 160° |
| 2026-05-08 18:10 | 37.65573 | 22.17884 | 35096 ft | 483 kts | 161° |
| 2026-05-08 18:11 | 37.59588 | 22.21730 | 35101 ft | 482 kts | 161° |
| 2026-05-08 18:11 | 37.53624 | 22.25556 | 35103 ft | 480 kts | 161° |
| 2026-05-08 18:12 | 37.47676 | 22.29363 | 35107 ft | 479 kts | 161° |
| 2026-05-08 18:12 | 37.41739 | 22.33170 | 35107 ft | 479 kts | 160° |
| 2026-05-08 18:13 | 37.36268 | 22.38103 | 35115 ft | 489 kts | 147° |
| 2026-05-08 18:13 | 37.31011 | 22.43447 | 35113 ft | 489 kts | 148° |
| 2026-05-08 18:14 | 37.25702 | 22.48771 | 35114 ft | 488 kts | 148° |
| 2026-05-08 18:14 | 37.20391 | 22.54087 | 35119 ft | 490 kts | 147° |
| 2026-05-08 18:15 | 37.15063 | 22.59412 | 35122 ft | 489 kts | 147° |
| 2026-05-08 18:15 | 37.09740 | 22.64722 | 35129 ft | 488 kts | 147° |
| 2026-05-08 18:16 | 37.04424 | 22.70013 | 35141 ft | 488 kts | 147° |
| 2026-05-08 18:16 | 36.99110 | 22.75293 | 35152 ft | 488 kts | 147° |
| 2026-05-08 18:17 | 36.93804 | 22.80557 | 34985 ft | 483 kts | 147° |
| 2026-05-08 18:17 | 36.91185 | 22.83152 | 34485 ft | 477 kts | 147° |
| 2026-05-08 18:17 | 36.88607 | 22.85702 | 34214 ft | 466 kts | 147° |
| 2026-05-08 18:18 | 36.86094 | 22.88187 | 33976 ft | 456 kts | 147° |
| 2026-05-08 18:18 | 36.83585 | 22.90666 | 33769 ft | 468 kts | 147° |
| 2026-05-08 18:18 | 36.80994 | 22.93224 | 33571 ft | 479 kts | 147° |
| 2026-05-08 18:18 | 36.78371 | 22.95811 | 33360 ft | 482 kts | 147° |
| 2026-05-08 18:19 | 36.75727 | 22.98416 | 33134 ft | 485 kts | 147° |
| 2026-05-08 18:19 | 36.73079 | 23.01022 | 32900 ft | 485 kts | 147° |
| 2026-05-08 18:19 | 36.70441 | 23.03617 | 32492 ft | 482 kts | 147° |
| 2026-05-08 18:19 | 36.67814 | 23.06198 | 32018 ft | 478 kts | 147° |
| 2026-05-08 18:20 | 36.65216 | 23.08750 | 31556 ft | 475 kts | 147° |
| 2026-05-08 18:20 | 36.62634 | 23.11282 | 31096 ft | 471 kts | 147° |
| 2026-05-08 18:20 | 36.60063 | 23.13802 | 30635 ft | 468 kts | 147° |
| 2026-05-08 18:20 | 36.57516 | 23.16297 | 30177 ft | 464 kts | 147° |
| 2026-05-08 18:21 | 36.55019 | 23.18739 | 29724 ft | 461 kts | 147° |
| 2026-05-08 18:21 | 36.52478 | 23.21223 | 29259 ft | 457 kts | 147° |
| 2026-05-08 18:21 | 36.49984 | 23.23661 | 28799 ft | 454 kts | 146° |
| 2026-05-08 18:21 | 36.47506 | 23.26077 | 28341 ft | 451 kts | 147° |
| 2026-05-08 18:22 | 36.45078 | 23.28445 | 27886 ft | 448 kts | 147° |
| 2026-05-08 18:22 | 36.42634 | 23.30827 | 27427 ft | 445 kts | 146° |
| 2026-05-08 18:22 | 36.40202 | 23.33193 | 26968 ft | 443 kts | 146° |
| 2026-05-08 18:22 | 36.37789 | 23.35541 | 26509 ft | 440 kts | 146° |
| 2026-05-08 18:23 | 36.35384 | 23.37877 | 26050 ft | 437 kts | 146° |
| 2026-05-08 18:23 | 36.33001 | 23.40193 | 25592 ft | 434 kts | 146° |
| 2026-05-08 18:23 | 36.30634 | 23.42489 | 25133 ft | 430 kts | 146° |
| 2026-05-08 18:23 | 36.28297 | 23.44754 | 24671 ft | 423 kts | 146° |
| 2026-05-08 18:24 | 36.26028 | 23.46954 | 24285 ft | 405 kts | 146° |
| 2026-05-08 18:24 | 36.23863 | 23.49048 | 23818 ft | 384 kts | 146° |
| 2026-05-08 18:24 | 36.21797 | 23.51047 | 23358 ft | 373 kts | 146° |
| 2026-05-08 18:24 | 36.19774 | 23.53003 | 22901 ft | 366 kts | 146° |
| 2026-05-08 18:25 | 36.17774 | 23.54935 | 22443 ft | 363 kts | 146° |
| 2026-05-08 18:25 | 36.15789 | 23.56853 | 21989 ft | 360 kts | 146° |
| 2026-05-08 18:25 | 36.13826 | 23.58747 | 21525 ft | 353 kts | 146° |
| 2026-05-08 18:25 | 36.11916 | 23.60590 | 21036 ft | 343 kts | 146° |
| 2026-05-08 18:26 | 36.10062 | 23.62375 | 20565 ft | 334 kts | 146° |
| 2026-05-08 18:26 | 36.08254 | 23.64118 | 20101 ft | 326 kts | 146° |
| 2026-05-08 18:26 | 36.06481 | 23.65824 | 19636 ft | 320 kts | 146° |
| 2026-05-08 18:26 | 36.04736 | 23.67503 | 19176 ft | 317 kts | 146° |
| 2026-05-08 18:27 | 36.02998 | 23.69173 | 18715 ft | 316 kts | 146° |
| 2026-05-08 18:27 | 36.02410 | 23.69738 | 18558 ft | 315 kts | 146° |
| 2026-05-08 18:27 | 35.99568 | 23.72468 | 17783 ft | 304 kts | 146° |
| 2026-05-08 18:27 | 35.97923 | 23.74046 | 17307 ft | 295 kts | 147° |
| 2026-05-08 18:28 | 35.96332 | 23.75571 | 16851 ft | 287 kts | 147° |
| 2026-05-08 18:28 | 35.94794 | 23.77046 | 16451 ft | 272 kts | 148° |
| 2026-05-08 18:28 | 35.93325 | 23.78453 | 15975 ft | 263 kts | 148° |
| 2026-05-08 18:28 | 35.92379 | 23.79359 | 15661 ft | 258 kts | 148° |
| 2026-05-08 18:29 | 35.90975 | 23.80703 | 15187 ft | 252 kts | 149° |
| 2026-05-08 18:29 | 35.89602 | 23.82017 | 14715 ft | 248 kts | 149° |
| 2026-05-08 18:29 | 35.88249 | 23.83311 | 14241 ft | 244 kts | 150° |
| 2026-05-08 18:29 | 35.86928 | 23.84576 | 13785 ft | 233 kts | 150° |
| 2026-05-08 18:30 | 35.85684 | 23.85769 | 13286 ft | 220 kts | 151° |
| 2026-05-08 18:30 | 35.84498 | 23.86902 | 12796 ft | 212 kts | 152° |
| 2026-05-08 18:30 | 35.83346 | 23.87999 | 12310 ft | 207 kts | 153° |
| 2026-05-08 18:30 | 35.82222 | 23.89071 | 11818 ft | 202 kts | 153° |
| 2026-05-08 18:31 | 35.81122 | 23.90127 | 11340 ft | 199 kts | 152° |
| 2026-05-08 18:31 | 35.80035 | 23.91167 | 10872 ft | 196 kts | 152° |
| 2026-05-08 18:31 | 35.78964 | 23.92189 | 10409 ft | 193 kts | 150° |
| 2026-05-08 18:31 | 35.77794 | 23.92802 | 9888 ft | 176 kts | 179° |
| 2026-05-08 18:32 | 35.76614 | 23.92714 | 9584 ft | 167 kts | 194° |
| 2026-05-08 18:32 | 35.75568 | 23.92191 | 9181 ft | 161 kts | 213° |
| 2026-05-08 18:32 | 35.74695 | 23.91348 | 8808 ft | 159 kts | 223° |
| 2026-05-08 18:32 | 35.73922 | 23.90380 | 8423 ft | 158 kts | 227° |
| 2026-05-08 18:33 | 35.73146 | 23.89430 | 8037 ft | 157 kts | 225° |
| 2026-05-08 18:33 | 35.72349 | 23.88516 | 7650 ft | 156 kts | 223° |
| 2026-05-08 18:33 | 35.71532 | 23.87642 | 7261 ft | 155 kts | 221° |
| 2026-05-08 18:33 | 35.70698 | 23.86809 | 6874 ft | 154 kts | 219° |
| 2026-05-08 18:34 | 35.69844 | 23.86012 | 6486 ft | 154 kts | 217° |
| 2026-05-08 18:34 | 35.68971 | 23.85260 | 6098 ft | 153 kts | 215° |
| 2026-05-08 18:34 | 35.68084 | 23.84552 | 5710 ft | 152 kts | 213° |
| 2026-05-08 18:34 | 35.67179 | 23.83886 | 5316 ft | 151 kts | 210° |
| 2026-05-08 18:35 | 35.66151 | 23.83833 | 4816 ft | 155 kts | 165° |
| 2026-05-08 18:35 | 35.65412 | 23.84751 | 4533 ft | 149 kts | 133° |
| 2026-05-08 18:35 | 35.64868 | 23.85827 | 4134 ft | 147 kts | 124° |
| 2026-05-08 18:35 | 35.64363 | 23.86911 | 4008 ft | 146 kts | 125° |
| 2026-05-08 18:36 | 35.63816 | 23.87965 | 3995 ft | 147 kts | 128° |
| 2026-05-08 18:36 | 35.63218 | 23.88979 | 3924 ft | 146 kts | 131° |
| 2026-05-08 18:36 | 35.62555 | 23.89892 | 3767 ft | 144 kts | 139° |
| 2026-05-08 18:36 | 35.61812 | 23.90718 | 3642 ft | 143 kts | 140° |
| 2026-05-08 18:37 | 35.61154 | 23.91631 | 3494 ft | 143 kts | 133° |
| 2026-05-08 18:37 | 35.60615 | 23.92656 | 3341 ft | 144 kts | 124° |
| 2026-05-08 18:37 | 35.60171 | 23.93757 | 3206 ft | 144 kts | 120° |
| 2026-05-08 18:37 | 35.59775 | 23.94869 | 3062 ft | 138 kts | 117° |
| 2026-05-08 18:38 | 35.59416 | 23.95939 | 2896 ft | 133 kts | 117° |
| 2026-05-08 18:38 | 35.59069 | 23.96985 | 2734 ft | 132 kts | 116° |
| 2026-05-08 18:38 | 35.58722 | 23.98034 | 2590 ft | 133 kts | 116° |
| 2026-05-08 18:38 | 35.58377 | 23.99083 | 2423 ft | 132 kts | 116° |
| 2026-05-08 18:39 | 35.58033 | 24.00130 | 2262 ft | 132 kts | 115° |
| 2026-05-08 18:39 | 35.57690 | 24.01175 | 2119 ft | 132 kts | 115° |
| 2026-05-08 18:39 | 35.57347 | 24.02219 | 1970 ft | 132 kts | 115° |
| 2026-05-08 18:39 | 35.57003 | 24.03262 | 1826 ft | 132 kts | 115° |
| 2026-05-08 18:40 | 35.56660 | 24.04305 | 1677 ft | 132 kts | 114° |
| 2026-05-08 18:40 | 35.56322 | 24.05349 | 1548 ft | 131 kts | 113° |
| 2026-05-08 18:40 | 35.56047 | 24.06423 | 1529 ft | 133 kts | 109° |
| 2026-05-08 18:40 | 35.55823 | 24.07519 | 1489 ft | 133 kts | 106° |
| 2026-05-08 18:41 | 35.55538 | 24.08602 | 1363 ft | 134 kts | 110° |
| 2026-05-08 18:41 | 35.55141 | 24.09640 | 1241 ft | 134 kts | 115° |
| 2026-05-08 18:41 | 35.54781 | 24.10699 | 994 ft | 134 kts | 112° |
| 2026-05-08 18:41 | 35.54400 | 24.11731 | 753 ft | 132 kts | 113° |
| 2026-05-08 18:42 | 35.54057 | 24.12780 | 649 ft | 133 kts | 112° |
| 2026-05-08 18:42 | 35.53695 | 24.13813 | 522 ft | 124 kts | 113° |
| 2026-05-08 18:42 | 35.53396 | 24.14644 | 521 ft | 89 kts | 113° |
| 2026-05-08 18:42 | 35.53250 | 24.15093 | 521 ft | 23 kts | 110° |
| 2026-05-08 18:43 | 35.53240 | 24.15125 | 521 ft | 2 kts | 110° |
| 2026-05-08 18:43 | 35.53224 | 24.15208 | 521 ft | 15 kts | 90° |
| 2026-05-08 18:43 | 35.53287 | 24.15279 | 521 ft | 13 kts | 12° |
| 2026-05-08 18:43 | 35.53365 | 24.15262 | 521 ft | 12 kts | 295° |
| 2026-05-08 18:44 | 35.53418 | 24.15104 | 521 ft | 27 kts | 294° |
| 2026-05-08 18:44 | 35.53497 | 24.14887 | 521 ft | 29 kts | 292° |
| 2026-05-08 18:44 | 35.53568 | 24.14670 | 521 ft | 20 kts | 291° |
| 2026-05-08 18:44 | 35.53640 | 24.14568 | 521 ft | 13 kts | 25° |
| 2026-05-08 18:45 | 35.53716 | 24.14565 | 521 ft | 11 kts | 297° |
| 2026-05-08 18:45 | 35.53760 | 24.14441 | 521 ft | 18 kts | 293° |
| 2026-05-08 18:45 | 35.53793 | 24.14346 | 521 ft | 10 kts | 317° |
| 2026-05-08 18:45 | 35.53862 | 24.14361 | 521 ft | 13 kts | 19° |
| 2026-05-08 18:46 | 35.53891 | 24.14374 | 521 ft | 0 kts | 22° |